Time;durP1;ratioP1;P1;durP2;ratioP2;P2;SDS_P1;SDS_P2;PMS_P1;PMS_P2;Temp;Humidity;BMP_temperature;BMP_pressure;BME280_temperature;BME280_humidity;BME280_pressure;Samples;Min_cycle;Max_cycle;Signal;HPM_P1;HPM_P2
2023/05/06 00:02:08;;;;;;;5.78;5.32;;;17.70;83.10;;;;;;3960407;29;20070;-45
2023/05/06 00:04:49;;;;;;;6.30;5.50;;;17.60;83.10;;;;;;3971272;29;20062;-46
2023/05/06 00:07:31;;;;;;;7.53;6.83;;;17.60;84.00;;;;;;3971361;29;20361;-45
2023/05/06 00:10:12;;;;;;;7.68;6.97;;;17.60;83.20;;;;;;3971501;29;20070;-45
2023/05/06 00:12:53;;;;;;;6.75;6.00;;;17.60;83.40;;;;;;3956280;29;20073;-44
2023/05/06 00:15:34;;;;;;;7.45;6.80;;;17.60;83.30;;;;;;3971513;29;20102;-46
2023/05/06 00:18:15;;;;;;;7.47;6.78;;;17.60;83.30;;;;;;3971491;29;20061;-45
2023/05/06 00:20:56;;;;;;;7.28;6.55;;;17.60;83.20;;;;;;3971125;29;20065;-44
2023/05/06 00:23:38;;;;;;;7.38;6.75;;;17.60;83.20;;;;;;3970828;29;20061;-45
2023/05/06 00:26:19;;;;;;;7.53;6.82;;;17.60;83.20;;;;;;3970883;29;20518;-46
2023/05/06 00:29:00;;;;;;;7.85;6.45;;;17.60;83.30;;;;;;3970778;29;20128;-46
2023/05/06 00:31:41;;;;;;;7.82;7.15;;;17.60;83.30;;;;;;3971101;29;20474;-46
2023/05/06 00:34:22;;;;;;;7.20;6.60;;;17.60;83.40;;;;;;3959861;29;20143;-50
2023/05/06 00:37:03;;;;;;;7.90;7.20;;;17.60;83.40;;;;;;3970666;29;20066;-47
2023/05/06 00:39:45;;;;;;;7.45;6.75;;;17.60;83.40;;;;;;3970625;29;20054;-46
2023/05/06 00:42:26;;;;;;;7.90;7.13;;;17.60;83.40;;;;;;3970700;29;20419;-46
2023/05/06 00:45:08;;;;;;;;;;;17.60;83.50;;;;;;3970910;29;20062;-56
2023/05/06 00:47:50;;;;;;;7.25;6.55;;;17.60;83.40;;;;;;3973805;29;20041;-47
2023/05/06 00:50:32;;;;;;;7.57;6.93;;;17.50;83.30;;;;;;3962482;29;20200;-46
2023/05/06 00:53:13;;;;;;;7.47;6.78;;;17.60;83.40;;;;;;3962466;29;20414;-47
2023/05/06 00:55:56;;;;;;;8.07;7.38;;;17.60;83.40;;;;;;3961991;29;20058;-43
2023/05/06 00:58:38;;;;;;;8.32;7.00;;;17.50;83.30;;;;;;3962301;29;20135;-45
2023/05/06 01:01:18;;;;;;;;;;;17.60;83.40;;;;;;3973315;29;20061;-45
2023/05/06 01:04:00;;;;;;;8.48;7.53;;;17.50;83.20;;;;;;3972968;29;19936;-45
2023/05/06 01:06:45;;;;;;;8.02;7.13;;;17.50;83.30;;;;;;3962565;29;20058;-46
2023/05/06 01:09:37;;;;;;;7.85;7.15;;;17.50;83.30;;;;;;3973643;29;20151;-45
2023/05/06 01:12:27;;;;;;;8.32;7.47;;;17.50;83.30;;;;;;3973224;29;20075;-56
2023/05/06 01:15:13;;;;;;;10.13;7.45;;;17.50;83.40;;;;;;3973422;29;20066;-57
2023/05/06 01:17:58;;;;;;;13.30;7.57;;;17.50;83.30;;;;;;3973491;29;20057;-57
2023/05/06 01:20:42;;;;;;;9.13;8.23;;;17.50;83.30;;;;;;3973212;29;20065;-58
2023/05/06 01:23:24;;;;;;;8.57;7.78;;;17.50;83.30;;;;;;3947676;29;20062;-58
2023/05/06 01:26:05;;;;;;;21.95;9.23;;;17.50;83.30;;;;;;3958596;29;20139;-58
2023/05/06 01:28:46;;;;;;;47.87;8.97;;;17.50;83.30;;;;;;3957527;29;20066;-58
2023/05/06 01:31:33;;;;;;;38.27;8.80;;;17.50;83.30;;;;;;3958351;29;20436;-59
2023/05/06 01:34:18;;;;;;;29.38;8.38;;;17.50;83.30;;;;;;3947276;29;20058;-58
2023/05/06 01:37:11;;;;;;;25.98;8.80;;;17.50;83.40;;;;;;3958322;30;20062;-56
2023/05/06 01:39:57;;;;;;;25.38;9.60;;;17.50;83.40;;;;;;3957896;29;20120;-59
2023/05/06 01:42:40;;;;;;;19.20;9.55;;;17.50;83.40;;;;;;3958361;29;20062;-58
2023/05/06 01:45:26;;;;;;;21.58;8.45;;;17.50;83.40;;;;;;3958233;30;20419;-59
2023/05/06 01:48:08;;;;;;;21.55;8.82;;;17.50;83.40;;;;;;3958250;29;20058;-58
2023/05/06 01:50:49;;;;;;;18.70;8.35;;;17.50;83.40;;;;;;3958192;29;20061;-60
2023/05/06 01:53:30;;;;;;;25.00;8.33;;;17.50;83.40;;;;;;3958154;29;20065;-58
2023/05/06 01:56:12;;;;;;;8.25;7.47;;;17.40;83.40;;;;;;3957210;29;20295;-59
2023/05/06 01:58:53;;;;;;;9.95;8.63;;;17.50;83.50;;;;;;3947356;30;20051;-59
2023/05/06 02:01:34;;;;;;;12.02;8.27;;;17.50;83.40;;;;;;3957781;29;20066;-59
2023/05/06 02:04:15;;;;;;;8.15;7.43;;;17.50;83.40;;;;;;3943353;30;20066;-58
2023/05/06 02:06:57;;;;;;;8.52;7.75;;;17.50;83.40;;;;;;3952150;29;20062;-59
2023/05/06 02:09:37;;;;;;;;;;;17.50;83.40;;;;;;3957968;29;20058;-58
2023/05/06 02:12:20;;;;;;;6.90;6.30;;;17.40;83.40;;;;;;3957927;29;20392;-57
2023/05/06 02:15:00;;;;;;;7.72;6.75;;;17.40;83.40;;;;;;3956870;29;20077;-60
2023/05/06 02:17:42;;;;;;;7.20;6.18;;;17.40;83.40;;;;;;3944987;29;20532;-58
2023/05/06 02:20:23;;;;;;;15.10;6.13;;;17.40;83.40;;;;;;3956983;29;20066;-58
2023/05/06 02:23:04;;;;;;;14.43;6.10;;;17.40;83.30;;;;;;3967074;29;20427;-56
2023/05/06 02:25:45;;;;;;;16.13;6.37;;;17.40;83.30;;;;;;3959603;29;20078;-59
2023/05/06 02:28:27;;;;;;;12.68;5.90;;;17.40;83.30;;;;;;3972234;29;20147;-59
2023/05/06 02:31:08;;;;;;;7.03;6.40;;;17.40;83.30;;;;;;3972276;29;20066;-58
2023/05/06 02:33:49;;;;;;;8.57;6.10;;;17.40;84.10;;;;;;3972328;29;20062;-58
2023/05/06 02:36:31;;;;;;;14.48;6.25;;;17.40;83.20;;;;;;3971875;29;20065;-58
2023/05/06 02:39:12;;;;;;;14.38;5.72;;;17.40;83.10;;;;;;3972106;29;20062;-58
2023/05/06 02:41:53;;;;;;;7.32;6.60;;;17.40;82.90;;;;;;3961020;29;20062;-57
2023/05/06 02:44:35;;;;;;;6.60;6.00;;;17.40;82.80;;;;;;3972284;29;20091;-58
2023/05/06 02:47:16;;;;;;;5.93;5.53;;;17.40;82.50;;;;;;3971968;29;20300;-57
2023/05/06 02:49:57;;;;;;;6.78;6.10;;;17.40;82.70;;;;;;3960767;29;20103;-57
2023/05/06 02:52:38;;;;;;;12.00;5.93;;;17.30;82.90;;;;;;3950064;29;20057;-57
2023/05/06 02:55:19;;;;;;;7.13;6.47;;;17.30;83.10;;;;;;3971265;29;20064;-58
2023/05/06 02:58:00;;;;;;;;;;;17.40;83.30;;;;;;3970895;29;20062;-57
2023/05/06 03:00:43;;;;;;;6.18;5.63;;;17.30;83.30;;;;;;3970622;29;19936;-58
2023/05/06 03:03:24;;;;;;;21.60;6.05;;;17.30;83.50;;;;;;3970845;29;20062;-60
2023/05/06 03:06:05;;;;;;;33.88;6.35;;;17.30;83.50;;;;;;3960831;29;20062;-59
2023/05/06 03:08:46;;;;;;;28.40;6.18;;;17.30;83.40;;;;;;3960954;29;20066;-59
2023/05/06 03:11:30;;;;;;;10.85;5.88;;;17.30;82.90;;;;;;3960627;29;20058;-58
2023/05/06 03:14:14;;;;;;;14.98;6.38;;;17.30;82.60;;;;;;3971516;29;20419;-56
2023/05/06 03:16:56;;;;;;;40.22;5.50;;;17.20;83.50;;;;;;3971302;29;20133;-58
2023/05/06 03:19:37;;;;;;;56.92;5.30;;;17.20;82.80;;;;;;3960423;29;20506;-57
2023/05/06 03:22:21;;;;;;;59.42;4.95;;;17.20;82.70;;;;;;3960162;29;20065;-58
2023/05/06 03:25:03;;;;;;;52.13;4.25;;;17.30;82.10;;;;;;3971488;29;20151;-57
2023/05/06 03:27:46;;;;;;;46.70;3.90;;;17.20;81.60;;;;;;3957554;29;20546;-59
2023/05/06 03:30:31;;;;;;;40.47;3.78;;;17.20;81.80;;;;;;3971133;29;20188;-57
2023/05/06 03:33:16;;;;;;;24.15;3.70;;;17.20;82.20;;;;;;3971386;29;20512;-59
2023/05/06 03:35:57;;;;;;;18.80;3.75;;;17.20;82.70;;;;;;3959946;29;20131;-57
2023/05/06 03:38:39;;;;;;;11.73;3.47;;;17.20;83.00;;;;;;3949652;29;20073;-45
2023/05/06 03:41:22;;;;;;;30.95;3.47;;;17.20;83.20;;;;;;3959811;29;20077;-47
2023/05/06 03:44:03;;;;;;;;;;;17.20;83.30;;;;;;3945901;29;20082;-50
2023/05/06 03:46:44;;;;;;;23.10;2.88;;;17.10;83.20;;;;;;3955864;29;19932;-46
2023/05/06 03:49:27;;;;;;;18.77;2.83;;;17.10;83.50;;;;;;3966423;29;20111;-46
2023/05/06 03:52:08;;;;;;;19.10;2.92;;;17.20;83.40;;;;;;3971105;29;20155;-47
2023/05/06 03:54:49;;;;;;;24.00;2.95;;;17.10;83.20;;;;;;3951223;29;20066;-46
2023/05/06 03:57:31;;;;;;;21.13;3.60;;;17.20;83.10;;;;;;3959889;29;20094;-45
2023/05/06 04:00:13;;;;;;;3.58;3.38;;;17.10;83.10;;;;;;3960030;29;20466;-46
2023/05/06 04:02:59;;;;;;;2.72;2.63;;;17.10;83.10;;;;;;3959764;29;20066;-47
2023/05/06 04:05:49;;;;;;;4.28;3.00;;;17.10;83.10;;;;;;3960272;29;20077;-46
2023/05/06 04:08:33;;;;;;;3.35;3.15;;;17.10;83.00;;;;;;3945408;29;20140;-45
2023/05/06 04:11:14;;;;;;;3.58;3.38;;;17.10;83.80;;;;;;3955513;29;20077;-46
2023/05/06 04:13:55;;;;;;;3.63;3.40;;;17.10;83.00;;;;;;3955309;29;20415;-46
2023/05/06 04:16:36;;;;;;;4.20;3.97;;;17.10;83.10;;;;;;3968639;29;20057;-46
2023/05/06 04:19:18;;;;;;;3.92;3.63;;;17.10;83.10;;;;;;3969837;29;20065;-46
2023/05/06 04:22:01;;;;;;;;;;;17.10;83.00;;;;;;3970189;29;20073;-45
2023/05/06 04:24:44;;;;;;;4.55;4.22;;;17.10;83.10;;;;;;3960269;29;19936;-45
2023/05/06 04:27:28;;;;;;;5.03;4.55;;;17.10;83.60;;;;;;3959492;29;20494;-46
2023/05/06 04:30:10;;;;;;;4.72;4.43;;;17.10;83.40;;;;;;3959459;29;20406;-46
2023/05/06 04:32:52;;;;;;;5.30;4.90;;;17.10;83.50;;;;;;3959511;29;20559;-46
2023/05/06 04:35:33;;;;;;;4.35;4.05;;;17.10;83.50;;;;;;3960069;29;20057;-44
2023/05/06 04:38:15;;;;;;;;;;;17.10;83.40;;;;;;3970147;29;20127;-46
2023/05/06 04:40:57;;;;;;;5.35;4.95;;;17.10;83.40;;;;;;3959729;29;19989;-47
2023/05/06 04:43:38;;;;;;;5.95;5.55;;;17.10;83.70;;;;;;3959114;29;20146;-45
2023/05/06 04:46:25;;;;;;;6.32;5.68;;;17.10;83.50;;;;;;3959844;29;20530;-45
2023/05/06 04:49:07;;;;;;;6.35;5.93;;;17.10;83.40;;;;;;3959958;29;20522;-46
2023/05/06 04:51:48;;;;;;;;;;;17.10;83.40;;;;;;3959847;29;20521;-48
2023/05/06 04:54:31;;;;;;;6.53;5.93;;;17.10;83.50;;;;;;3969989;29;20069;-47
2023/05/06 04:57:12;;;;;;;6.32;5.82;;;17.10;83.80;;;;;;3959511;29;20065;-45
2023/05/06 04:59:56;;;;;;;8.38;7.57;;;17.10;83.90;;;;;;3949373;29;20219;-43
2023/05/06 05:02:37;;;;;;;7.47;6.88;;;17.10;84.40;;;;;;3959464;29;20058;-43
2023/05/06 05:05:19;;;;;;;8.25;7.47;;;17.20;84.50;;;;;;3970224;29;20075;-44
2023/05/06 05:08:04;;;;;;;7.93;7.25;;;17.20;84.30;;;;;;3959488;29;20066;-43
2023/05/06 05:10:49;;;;;;;8.32;7.22;;;17.10;84.10;;;;;;3959361;29;20147;-43
2023/05/06 05:13:34;;;;;;;7.85;7.07;;;17.20;84.10;;;;;;3959360;29;20076;-43
2023/05/06 05:16:16;;;;;;;8.25;7.55;;;17.10;84.10;;;;;;3959336;29;20123;-43
2023/05/06 05:18:58;;;;;;;9.57;7.88;;;17.10;84.10;;;;;;3958815;29;20592;-57
2023/05/06 05:21:42;;;;;;;9.32;8.43;;;17.20;84.30;;;;;;3955726;29;20411;-44
2023/05/06 05:24:24;;;;;;;8.55;7.75;;;17.10;84.30;;;;;;3969607;29;20058;-44
2023/05/06 05:27:07;;;;;;;8.77;7.75;;;17.10;84.30;;;;;;3969167;29;20058;-44
2023/05/06 05:29:49;;;;;;;8.95;7.97;;;17.10;84.40;;;;;;3959284;29;20139;-43
2023/05/06 05:32:30;;;;;;;;;;;17.10;84.40;;;;;;3949642;29;20184;-44
2023/05/06 05:35:11;;;;;;;9.57;7.80;;;17.10;84.30;;;;;;3961522;29;19946;-57
2023/05/06 05:37:55;;;;;;;10.60;8.40;;;17.10;84.40;;;;;;3972292;29;20142;-57
2023/05/06 05:40:36;;;;;;;;;;;17.10;84.40;;;;;;3960689;29;20094;-56
2023/05/06 05:43:21;;;;;;;8.50;7.30;;;17.10;84.30;;;;;;3957387;29;20385;-58
2023/05/06 05:46:03;;;;;;;8.48;7.72;;;17.10;84.60;;;;;;3961527;29;20058;-58
2023/05/06 05:48:45;;;;;;;8.25;7.32;;;17.10;84.50;;;;;;3972802;29;20511;-58
2023/05/06 05:51:27;;;;;;;10.50;8.13;;;17.10;84.60;;;;;;3972776;29;20064;-56
2023/05/06 05:54:09;;;;;;;11.93;8.00;;;17.10;84.60;;;;;;3968593;29;20196;-58
2023/05/06 05:56:53;;;;;;;10.35;8.50;;;17.10;84.70;;;;;;3972589;29;20054;-59
2023/05/06 05:59:37;;;;;;;8.68;7.80;;;17.10;84.70;;;;;;3976561;29;20127;-57
2023/05/06 06:02:19;;;;;;;8.27;7.47;;;17.10;84.80;;;;;;3961767;29;20066;-57
2023/05/06 06:05:00;;;;;;;7.72;7.03;;;17.10;84.80;;;;;;3974691;29;20058;-58
2023/05/06 06:07:44;;;;;;;9.88;8.02;;;17.10;84.80;;;;;;3975519;29;20099;-57
2023/05/06 06:10:26;;;;;;;9.05;8.18;;;17.10;84.90;;;;;;3974390;29;20070;-58
2023/05/06 06:13:07;;;;;;;9.70;8.70;;;17.10;85.00;;;;;;3968683;29;20074;-57
2023/05/06 06:15:50;;;;;;;8.70;7.80;;;17.10;85.10;;;;;;3954170;29;20181;-58
2023/05/06 06:18:31;;;;;;;9.15;8.25;;;17.10;85.20;;;;;;3969967;29;20054;-55
2023/05/06 06:21:12;;;;;;;10.77;8.45;;;17.20;85.30;;;;;;3970955;29;20123;-57
2023/05/06 06:23:54;;;;;;;9.77;8.52;;;17.20;85.40;;;;;;3960589;29;20065;-56
2023/05/06 06:26:35;;;;;;;;;;;17.20;85.40;;;;;;3986887;29;20062;-56
2023/05/06 06:29:16;;;;;;;8.95;8.10;;;17.10;85.30;;;;;;3972936;29;20425;-57
2023/05/06 06:31:59;;;;;;;9.77;8.75;;;17.10;85.20;;;;;;3972017;29;20130;-57
2023/05/06 06:34:40;;;;;;;9.13;8.13;;;17.10;85.30;;;;;;3971841;29;20142;-56
2023/05/06 06:37:21;;;;;;;9.68;8.63;;;17.10;85.40;;;;;;3971234;29;20049;-56
2023/05/06 06:40:02;;;;;;;11.68;9.07;;;17.10;85.50;;;;;;3957120;29;20103;-57
2023/05/06 06:42:43;;;;;;;9.70;8.70;;;17.10;85.50;;;;;;3970313;29;20058;-57
2023/05/06 06:45:46;;;;;;;9.82;8.82;;;17.10;85.50;;;;;;3967843;29;20813;-56
2023/05/06 06:48:28;;;;;;;9.32;8.32;;;17.10;85.50;;;;;;3957121;29;20062;-56
2023/05/06 06:51:09;;;;;;;10.98;9.43;;;17.10;85.60;;;;;;3968212;29;20057;-57
2023/05/06 06:53:50;;;;;;;11.32;9.50;;;17.10;85.60;;;;;;3972081;29;20053;-59
2023/05/06 06:56:31;;;;;;;9.77;8.70;;;17.10;85.60;;;;;;3972089;29;20073;-56
2023/05/06 06:59:12;;;;;;;11.20;9.65;;;17.10;85.60;;;;;;3971648;29;20061;-43
2023/05/06 07:01:53;;;;;;;11.02;9.02;;;17.10;85.60;;;;;;3971460;29;20099;-43
2023/05/06 07:04:35;;;;;;;12.45;9.85;;;17.10;85.60;;;;;;3972082;29;20074;-43
2023/05/06 07:07:16;;;;;;;10.70;9.55;;;17.20;85.70;;;;;;3971692;29;20067;-43
2023/05/06 07:09:57;;;;;;;11.55;10.00;;;17.10;85.60;;;;;;3943965;29;20058;-43
2023/05/06 07:12:38;;;;;;;11.80;9.40;;;17.10;85.60;;;;;;3965987;29;20471;-43
2023/05/06 07:15:19;;;;;;;12.60;10.60;;;17.10;86.50;;;;;;3962943;29;20061;-49
2023/05/06 07:18:00;;;;;;;12.55;10.68;;;17.10;85.90;;;;;;3971109;29;20105;-43
2023/05/06 07:20:43;;;;;;;13.43;10.70;;;17.20;86.20;;;;;;3969823;29;20560;-43
2023/05/06 07:23:23;;;;;;;11.98;10.68;;;17.20;86.40;;;;;;3968842;29;20061;-43
2023/05/06 07:26:05;;;;;;;14.02;10.20;;;17.20;86.10;;;;;;3971366;29;20062;-56
2023/05/06 07:28:45;;;;;;;13.40;11.10;;;17.20;85.90;;;;;;3960546;29;20057;-57
2023/05/06 07:31:26;;;;;;;11.95;9.98;;;17.20;85.70;;;;;;3971865;29;20192;-60
2023/05/06 07:34:07;;;;;;;11.07;9.38;;;17.20;85.80;;;;;;3971677;29;20062;-58
2023/05/06 07:36:50;;;;;;;12.60;9.85;;;17.20;85.90;;;;;;3971600;29;20122;-57
2023/05/06 07:39:31;;;;;;;11.60;9.13;;;17.20;85.90;;;;;;3971792;29;20122;-56
2023/05/06 07:42:12;;;;;;;11.80;9.32;;;17.20;86.00;;;;;;3971365;29;20168;-56
2023/05/06 07:44:53;;;;;;;13.18;10.15;;;17.20;86.00;;;;;;3971508;29;20062;-44
2023/05/06 07:47:35;;;;;;;13.63;10.52;;;17.30;86.10;;;;;;3971044;29;20069;-44
2023/05/06 07:50:16;;;;;;;11.10;9.85;;;17.20;86.10;;;;;;3971198;29;20134;-44
2023/05/06 07:52:59;;;;;;;11.48;10.18;;;17.20;86.20;;;;;;3971340;29;20545;-44
2023/05/06 07:55:39;;;;;;;12.55;10.70;;;17.20;86.40;;;;;;3970729;29;20074;-44
2023/05/06 07:58:20;;;;;;;11.35;10.20;;;17.20;86.60;;;;;;3956007;29;20054;-43
2023/05/06 08:01:02;;;;;;;11.40;10.07;;;17.20;86.30;;;;;;3956078;29;20136;-58
2023/05/06 08:03:43;;;;;;;13.75;11.07;;;17.20;86.40;;;;;;3956488;29;20069;-57
2023/05/06 08:06:24;;;;;;;13.55;10.82;;;17.20;86.50;;;;;;3956261;29;20079;-56
2023/05/06 08:09:06;;;;;;;13.32;11.93;;;17.20;86.50;;;;;;3956084;29;20522;-58
2023/05/06 08:11:47;;;;;;;12.15;10.80;;;17.20;86.60;;;;;;3967430;29;20089;-57
2023/05/06 08:14:27;;;;;;;12.70;11.13;;;17.20;86.70;;;;;;3956300;29;20058;-55
2023/05/06 08:17:09;;;;;;;13.40;11.07;;;17.20;86.70;;;;;;3955699;29;20111;-57
2023/05/06 08:19:50;;;;;;;15.20;11.07;;;17.20;86.70;;;;;;3955490;29;20058;-57
2023/05/06 08:22:31;;;;;;;13.48;11.80;;;17.20;86.80;;;;;;3955363;29;20054;-59
2023/05/06 08:25:13;;;;;;;14.38;10.98;;;17.30;86.80;;;;;;3955771;29;20075;-57
2023/05/06 08:27:55;;;;;;;15.98;11.93;;;17.20;86.90;;;;;;3963878;29;20062;-65
2023/05/06 08:30:36;;;;;;;16.83;11.77;;;17.30;87.00;;;;;;3970452;29;20062;-55
2023/05/06 08:33:17;;;;;;;15.77;11.88;;;17.30;87.20;;;;;;3969904;29;20067;-56
2023/05/06 08:35:58;;;;;;;16.45;12.38;;;17.30;87.30;;;;;;3959378;29;20464;-58
2023/05/06 08:38:39;;;;;;;12.32;10.63;;;17.30;87.40;;;;;;3970963;29;20081;-58
2023/05/06 08:41:22;;;;;;;14.10;11.18;;;17.30;87.70;;;;;;3970622;29;20107;-57
2023/05/06 08:44:05;;;;;;;14.65;12.00;;;17.40;88.00;;;;;;3970783;29;20200;-58
2023/05/06 08:46:46;;;;;;;12.25;10.95;;;17.40;88.10;;;;;;3949006;29;20487;-59
2023/05/06 08:49:27;;;;;;;12.98;11.52;;;17.50;88.30;;;;;;3970791;29;20062;-56
2023/05/06 08:52:09;;;;;;;15.95;12.27;;;17.50;88.70;;;;;;3970735;29;20126;-57
2023/05/06 08:54:53;;;;;;;14.98;11.13;;;17.60;88.30;;;;;;3970750;29;20208;-58
2023/05/06 08:57:36;;;;;;;16.33;12.02;;;17.60;88.00;;;;;;3959341;29;20058;-55
2023/05/06 09:00:17;;;;;;;12.23;10.27;;;17.70;87.70;;;;;;3970709;29;20503;-58
2023/05/06 09:03:00;;;;;;;15.07;11.82;;;17.70;88.00;;;;;;3955577;29;20076;-57
2023/05/06 09:05:41;;;;;;;13.93;10.65;;;17.80;87.50;;;;;;3954854;30;20128;-59
2023/05/06 09:08:22;;;;;;;13.80;11.93;;;17.80;87.40;;;;;;3958031;29;20427;-59
2023/05/06 09:11:03;;;;;;;15.80;12.55;;;17.80;86.90;;;;;;3958460;29;20108;-62
2023/05/06 09:13:45;;;;;;;12.35;10.32;;;17.90;87.00;;;;;;3958345;29;20050;-65
2023/05/06 09:16:28;;;;;;;15.48;12.10;;;18.00;86.90;;;;;;3958064;29;20077;-61
2023/05/06 09:19:09;;;;;;;13.32;10.82;;;18.00;86.50;;;;;;3969897;29;20085;-61
2023/05/06 09:21:51;;;;;;;12.90;10.43;;;18.10;86.10;;;;;;3972861;29;20058;-62
2023/05/06 09:24:32;;;;;;;11.95;10.57;;;18.10;85.80;;;;;;3973020;29;20107;-44
2023/05/06 09:27:13;;;;;;;11.80;9.63;;;18.10;86.00;;;;;;3972789;29;20061;-57
2023/05/06 09:30:03;;;;;;;;;;;18.10;85.70;;;;;;3962305;29;20053;-56
2023/05/06 09:32:48;;;;;;;12.32;9.18;;;18.20;85.60;;;;;;3973247;29;20392;-59
2023/05/06 09:35:35;;;;;;;11.95;10.75;;;18.20;85.00;;;;;;3961638;29;20061;-57
2023/05/06 09:38:16;;;;;;;11.73;10.52;;;18.30;85.00;;;;;;3972468;29;20058;-58
2023/05/06 09:40:57;;;;;;;11.55;10.05;;;18.30;84.90;;;;;;3972881;29;20058;-57
2023/05/06 09:43:40;;;;;;;;;;;18.40;84.60;;;;;;3962272;29;20080;-57
2023/05/06 09:46:24;;;;;;;13.10;9.98;;;18.40;84.30;;;;;;3973312;29;19932;-58
2023/05/06 09:49:06;;;;;;;10.63;9.15;;;18.40;83.80;;;;;;3972856;29;20156;-58
2023/05/06 09:51:50;;;;;;;10.70;9.05;;;18.50;83.60;;;;;;3972957;29;20697;-57
2023/05/06 09:54:32;;;;;;;8.70;7.82;;;18.50;83.20;;;;;;3961787;29;21187;-58
2023/05/06 09:57:14;;;;;;;;;;;18.60;83.00;;;;;;3972994;29;20101;-57
2023/05/06 09:59:57;;;;;;;9.40;8.45;;;18.60;82.70;;;;;;3972275;29;20284;-56
2023/05/06 10:02:40;;;;;;;8.45;7.18;;;18.60;82.50;;;;;;3973028;29;20085;-44
2023/05/06 10:05:23;;;;;;;11.65;7.75;;;18.60;82.20;;;;;;3972723;29;20070;-43
2023/05/06 10:08:07;;;;;;;8.23;7.38;;;18.70;82.10;;;;;;3972712;29;20054;-43
2023/05/06 10:10:50;;;;;;;7.80;7.07;;;18.70;81.90;;;;;;3961358;29;20419;-43
2023/05/06 10:13:31;;;;;;;8.05;7.28;;;18.80;81.50;;;;;;3961407;29;20066;-44
2023/05/06 10:16:12;;;;;;;12.70;8.20;;;18.80;81.20;;;;;;3972950;29;20209;-44
2023/05/06 10:18:58;;;;;;;9.13;7.93;;;18.90;80.90;;;;;;3972355;29;20058;-57
2023/05/06 10:21:41;;;;;;;8.35;7.55;;;18.90;80.50;;;;;;3972621;29;20057;-58
2023/05/06 10:24:29;;;;;;;7.90;7.18;;;19.00;80.10;;;;;;3946601;30;20055;-43
2023/05/06 10:27:12;;;;;;;9.65;8.27;;;19.00;79.90;;;;;;3955709;29;20130;-43
2023/05/06 10:29:57;;;;;;;9.27;8.20;;;19.00;80.00;;;;;;3945981;29;20058;-43
2023/05/06 10:32:43;;;;;;;9.15;8.10;;;19.00;79.90;;;;;;3945937;29;20062;-43
2023/05/06 10:35:38;;;;;;;9.90;8.90;;;19.10;79.70;;;;;;3945631;30;20057;-43
2023/05/06 10:38:24;;;;;;;10.13;9.23;;;19.10;79.80;;;;;;3956379;29;20057;-43
2023/05/06 10:41:07;;;;;;;10.13;9.13;;;19.20;80.00;;;;;;3956284;29;20066;-42
2023/05/06 10:43:55;;;;;;;10.35;9.20;;;19.20;79.90;;;;;;3956714;29;20057;-44
2023/05/06 10:46:57;;;;;;;10.23;8.93;;;19.20;79.70;;;;;;3956818;29;20061;-43
2023/05/06 10:49:38;;;;;;;9.77;8.60;;;19.20;79.70;;;;;;3956374;29;20403;-44
2023/05/06 10:52:20;;;;;;;10.15;9.10;;;19.30;79.60;;;;;;3956580;29;20070;-44
2023/05/06 10:55:21;;;;;;;9.82;8.82;;;19.30;79.60;;;;;;3956433;29;20139;-43
2023/05/06 10:58:12;;;;;;;9.88;8.85;;;19.30;79.40;;;;;;3956572;29;20189;-43
2023/05/06 11:00:58;;;;;;;9.45;8.05;;;19.30;79.00;;;;;;3945706;30;20074;-45
2023/05/06 11:03:42;;;;;;;9.82;8.82;;;19.30;79.10;;;;;;3952728;29;20058;-44
2023/05/06 11:06:39;;;;;;;9.80;8.82;;;19.30;79.30;;;;;;3956399;29;20066;-44
2023/05/06 11:09:23;;;;;;;8.75;7.82;;;19.40;79.60;;;;;;3956027;29;20054;-44
2023/05/06 11:12:07;;;;;;;8.40;7.60;;;19.40;79.20;;;;;;3956467;29;20061;-43
2023/05/06 11:14:50;;;;;;;7.40;6.78;;;19.40;78.80;;;;;;3956737;29;20082;-43
2023/05/06 11:17:33;;;;;;;7.60;6.90;;;19.40;78.80;;;;;;3956478;29;20066;-55
2023/05/06 11:20:19;;;;;;;11.10;7.45;;;19.40;78.80;;;;;;3941819;30;20077;-44
2023/05/06 11:23:00;;;;;;;8.65;7.80;;;19.40;78.80;;;;;;3955073;29;20396;-57
2023/05/06 11:25:45;;;;;;;10.20;9.20;;;19.40;78.80;;;;;;3971123;29;20130;-56
2023/05/06 11:28:29;;;;;;;10.82;9.20;;;19.40;78.70;;;;;;3971458;29;20514;-59
2023/05/06 11:31:11;;;;;;;9.35;8.45;;;19.40;78.60;;;;;;3970454;29;20054;-56
2023/05/06 11:33:53;;;;;;;9.55;6.95;;;19.40;78.70;;;;;;3970816;29;20422;-55
2023/05/06 11:36:35;;;;;;;5.85;5.35;;;19.40;78.50;;;;;;3971277;29;20085;-43
2023/05/06 11:39:17;;;;;;;8.40;6.22;;;19.40;78.40;;;;;;3971256;29;20062;-58
2023/05/06 11:42:01;;;;;;;7.43;6.72;;;19.40;78.30;;;;;;3970476;29;20065;-57
2023/05/06 11:44:42;;;;;;;9.52;8.63;;;19.40;78.40;;;;;;3959586;29;20541;-58
2023/05/06 11:47:24;;;;;;;9.03;8.13;;;19.30;78.50;;;;;;3970440;29;20066;-57
2023/05/06 11:50:06;;;;;;;7.32;6.60;;;19.30;78.60;;;;;;3970309;29;20803;-56
2023/05/06 11:52:47;;;;;;;8.43;7.70;;;19.30;78.70;;;;;;3970490;29;20399;-58
2023/05/06 11:55:28;;;;;;;10.35;8.82;;;19.40;78.80;;;;;;3971168;29;20506;-43
2023/05/06 11:58:15;;;;;;;12.77;9.27;;;19.30;78.70;;;;;;3971108;29;20062;-44
2023/05/06 12:00:58;;;;;;;13.63;10.05;;;19.40;79.80;;;;;;3959209;29;20061;-43
2023/05/06 12:03:39;;;;;;;12.35;11.07;;;19.30;78.80;;;;;;3970272;29;20058;-42
2023/05/06 12:06:33;;;;;;;10.18;9.18;;;19.30;78.90;;;;;;3970765;29;20677;-43
2023/05/06 12:09:15;;;;;;;10.88;9.70;;;19.30;80.10;;;;;;3970198;29;20057;-44
2023/05/06 12:11:56;;;;;;;11.30;10.27;;;19.30;79.10;;;;;;3969981;29;20161;-43
2023/05/06 12:14:40;;;;;;;12.43;9.15;;;19.30;78.90;;;;;;3970938;29;20062;-43
2023/05/06 12:17:21;;;;;;;11.15;8.88;;;19.30;78.90;;;;;;3966533;29;20053;-43
2023/05/06 12:20:03;;;;;;;10.95;10.00;;;19.30;79.20;;;;;;3970261;29;20061;-43
2023/05/06 12:22:44;;;;;;;11.35;10.25;;;19.40;78.80;;;;;;3970246;29;20471;-43
2023/05/06 12:25:25;;;;;;;12.88;10.43;;;19.30;78.90;;;;;;3970224;29;20057;-43
2023/05/06 12:28:14;;;;;;;11.43;10.27;;;19.30;78.90;;;;;;3958421;29;20231;-42
2023/05/06 12:30:56;;;;;;;11.55;10.45;;;19.30;78.70;;;;;;3954961;29;20773;-44
2023/05/06 12:33:45;;;;;;;11.23;10.13;;;19.30;79.00;;;;;;3955333;29;20827;-44
2023/05/06 12:36:26;;;;;;;11.70;10.45;;;19.30;80.30;;;;;;3944388;29;20420;-42
2023/05/06 12:39:08;;;;;;;11.35;10.00;;;19.20;79.50;;;;;;3955891;29;20061;-43
2023/05/06 12:41:49;;;;;;;12.27;10.48;;;19.20;79.60;;;;;;3957281;29;20074;-43
2023/05/06 12:44:32;;;;;;;12.60;11.30;;;19.20;79.90;;;;;;3958783;29;20078;-43
2023/05/06 12:47:21;;;;;;;13.85;11.73;;;19.20;80.20;;;;;;3972047;29;20203;-43
2023/05/06 12:50:02;;;;;;;12.63;11.18;;;19.20;80.80;;;;;;3958273;29;20103;-43
2023/05/06 12:52:44;;;;;;;12.07;10.77;;;19.10;80.80;;;;;;3958578;29;20062;-43
2023/05/06 12:55:25;;;;;;;11.82;10.73;;;19.10;80.90;;;;;;3970853;29;20061;-43
2023/05/06 12:58:15;;;;;;;12.95;11.55;;;19.10;81.10;;;;;;3970973;29;20605;-44
2023/05/06 13:00:56;;;;;;;13.50;11.55;;;19.10;81.40;;;;;;3973417;29;20149;-44
2023/05/06 13:03:39;;;;;;;12.65;11.32;;;19.00;81.40;;;;;;3987305;29;20478;-44
2023/05/06 13:06:20;;;;;;;13.90;12.02;;;19.00;81.80;;;;;;3953779;29;20063;-44
2023/05/06 13:09:01;;;;;;;14.10;11.98;;;19.00;82.00;;;;;;3987008;29;20567;-44
2023/05/06 13:11:42;;;;;;;13.38;12.02;;;19.00;82.30;;;;;;3987828;29;20163;-43
2023/05/06 13:14:23;;;;;;;13.30;11.82;;;19.00;82.50;;;;;;3960108;29;20201;-46
2023/05/06 13:17:05;;;;;;;14.82;13.32;;;19.00;82.80;;;;;;3965723;29;20196;-48
2023/05/06 13:19:48;;;;;;;16.90;13.02;;;19.00;83.00;;;;;;3973105;29;20085;-43
2023/05/06 13:22:29;;;;;;;15.82;12.95;;;18.90;83.10;;;;;;3972247;29;20077;-49
2023/05/06 13:25:12;;;;;;;16.50;13.25;;;18.90;83.40;;;;;;3972656;29;20062;-44
2023/05/06 13:27:53;;;;;;;14.65;12.90;;;18.90;84.10;;;;;;3973371;29;20085;-44
2023/05/06 13:30:34;;;;;;;14.45;12.70;;;18.90;83.60;;;;;;3973082;29;20078;-44
2023/05/06 13:33:15;;;;;;;12.40;10.57;;;18.90;84.00;;;;;;3969589;29;20143;-44
2023/05/06 13:35:58;;;;;;;14.30;12.40;;;18.80;84.10;;;;;;3972116;29;20147;-43
2023/05/06 13:38:39;;;;;;;15.30;12.50;;;18.80;84.00;;;;;;3975321;29;20073;-44
2023/05/06 13:41:20;;;;;;;17.45;13.00;;;18.80;84.90;;;;;;3964901;29;20445;-44
2023/05/06 13:44:01;;;;;;;16.50;12.48;;;18.80;84.20;;;;;;3977882;29;20088;-44
2023/05/06 13:46:42;;;;;;;16.60;13.20;;;18.80;84.60;;;;;;3972196;29;20053;-44
2023/05/06 13:49:26;;;;;;;15.48;12.52;;;18.80;84.70;;;;;;3970103;29;20065;-43
2023/05/06 13:52:08;;;;;;;15.73;13.65;;;18.70;84.70;;;;;;3972750;29;20071;-57
2023/05/06 13:54:49;;;;;;;16.20;14.55;;;18.70;85.50;;;;;;3955879;29;20132;-57
2023/05/06 13:57:30;;;;;;;13.90;12.40;;;18.70;85.00;;;;;;3967704;29;20529;-56
2023/05/06 14:00:12;;;;;;;15.17;13.57;;;18.70;85.00;;;;;;3971985;29;20400;-56
2023/05/06 14:02:53;;;;;;;17.38;13.68;;;18.60;85.00;;;;;;3972412;29;20360;-43